METAR Data
IDs: Format: Raw Decoded Include TAF

Data at: 2337 UTC 25 Oct 2021

PAIK 252335Z AUTO 20005KT 9SM FEW008 BKN011 OVC024 M02/M03 A2930 RMK AO2 FZRANO
PAIK 252256Z AUTO 20006KT 6SM BR OVC007 M03/M04 A2930 RMK AO2 SNE17 CIG 007V011 SLP926 P0000 T10281039 FZRANO
PAIK 252156Z AUTO VRB03KT 5SM -SN BR OVC009 M03/M04 A2930 RMK AO2 SNB39 CIG 008V012 SLP925 P0000 T10281039 FZRANO
PAIK 252148Z AUTO VRB03KT 2 1/2SM -SN BR OVC009 M03/M04 A2930 RMK AO2 SNB39 CIG 008V012 P0000 FZRANO
PAIK 252056Z AUTO 18004KT 10SM OVC013 M03/M05 A2930 RMK AO2 SLP923 T10331050 53006 FZRANO
PAIK 252044Z AUTO 20004KT 10SM OVC013 M03/M04 A2929 RMK AO2 FZRANO
PAIK 251956Z AUTO 19004KT 10SM OVC015 M03/M04 A2929 RMK AO2 SLP921 T10331044 FZRANO
PAIK 251856Z AUTO 20003KT 10SM OVC013 M03/M04 A2928 RMK AO2 SLP919 T10331044 FZRANO
PAIK 251756Z AUTO 00000KT 10SM OVC013 M03/M04 A2928 RMK AO2 SLP916 60000 T10331044 11022 21039 56001 FZRANO
PAIK 251656Z AUTO 00000KT 10SM OVC013 M04/M04 A2928 RMK AO2 SNB26E50 SLP917 P0000 T10391044 FZRANO
PAIK 251641Z AUTO 00000KT 4SM -SN BR SCT008 BKN013 OVC018 M03/M04 A2928 RMK AO2 SNB26 P0000 FZRANO
PAIK 251632Z AUTO 00000KT 3SM -SN BR BKN008 BKN013 OVC018 M04/M05 A2928 RMK AO2 SNB26 CIG 006V010 P0000 FZRANO
PAIK 251556Z AUTO 16003KT 10SM OVC011 M03/M04 A2928 RMK AO2 SLP916 T10331044 FZRANO
PAIK 251531Z AUTO 19004KT 10SM OVC013 M03/M04 A2928 RMK AO2 FZRANO
PAIK 251456Z AUTO 00000KT 10SM OVC017 M03/M04 A2928 RMK AO2 SLP917 T10281044 58003 FZRANO
PAIK 251356Z AUTO 00000KT 10SM OVC015 M03/M04 A2928 RMK AO2 SLP918 T10281039 FZRANO
PAIK 251256Z AUTO 00000KT 10SM OVC017 M03/M04 A2929 RMK AO2 SLP920 T10281039 FZRANO
PAIK 251156Z AUTO 00000KT 10SM OVC017 M03/M04 A2929 RMK AO2 SLP920 T10281039 11006 21033 56010 FZRANO
PAIK 251115Z AUTO 00000KT 10SM BKN021 M03/M03 A2929 RMK AO2 FZRANO
PAIK 251106Z AUTO 00000KT 10SM SCT021 SCT027 M03/M03 A2930 RMK AO2 FZRANO
PAIK 251056Z AUTO 09005KT 10SM SCT021 BKN025 M03/M03 A2930 RMK AO2 SLP922 T10281033 FZRANO
PAIK 250956Z AUTO 10003KT 10SM SCT100 M02/M03 A2931 RMK AO2 SLP927 T10221033 FZRANO
PAIK 250932Z AUTO 09006KT 10SM FEW022 BKN100 M02/M03 A2931 RMK AO2 FZRANO
PAIK 250924Z AUTO 08008KT 10SM FEW022 BKN028 M02/M03 A2931 RMK AO2 FZRANO
PAIK 250856Z AUTO 32003KT 10SM SCT028 SCT095 M03/M04 A2932 RMK AO2 SLP931 T10331044 410061033 55006 FZRANO
PAIK 250834Z AUTO VRB03KT 10SM SCT027 BKN095 M02/M04 A2932 RMK AO2 FZRANO
PAIK 250756Z AUTO 10005KT 10SM OVC027 M02/M03 A2932 RMK AO2 SLP931 T10171033 FZRANO
PAIK 250656Z AUTO 10006KT 10SM OVC027 M01/M03 A2933 RMK AO2 SLP933 T10111028 FZRANO
PAIK 250556Z AUTO 10005KT 10SM OVC029 M01/M02 A2934 RMK AO2 SLP936 T10061022 11006 21006 56010 FZRANO
PAIK 250515Z AUTO 10007KT 10SM OVC029 M01/M02 A2934 RMK AO2 FZRANO
PAIK 250456Z AUTO 10006KT 10SM OVC031 M01/M02 A2935 RMK AO2 SLP940 T10061022 FZRANO
PAIK 250356Z AUTO 10008KT 10SM OVC035 M01/M02 A2935 RMK AO2 SLP942 T10061022 FZRANO
PAIK 250256Z AUTO 10006KT 10SM OVC035 M01/M02 A2937 RMK AO2 SLP947 T10061022 58007 FZRANO
PAIK 250234Z AUTO 09006KT 10SM BKN030 OVC035 M01/M02 A2937 RMK AO2 FZRANO
PAIK 250156Z AUTO 10005KT 10SM OVC027 M01/M02 A2938 RMK AO2 SLP951 T10061022 FZRANO
PAIK 250128Z AUTO 10007KT 10SM OVC029 M01/M02 A2938 RMK AO2 FZRANO
PAIK 250056Z AUTO 10007KT 10SM OVC031 M01/M02 A2939 RMK AO2 SLP955 T10061022 FZRANO
PAIK 250051Z AUTO 10007KT 10SM OVC031 M01/M02 A2939 RMK AO2 FZRANO
PAIK 242356Z AUTO 10006KT 10SM OVC027 M01/M02 A2940 RMK AO2 SNB40E50 SLP958 P0000 60000 T10061022 11006 21033 58007 FZRANO
PAIK 242256Z AUTO 10006KT 10SM FEW017 OVC024 M01/M03 A2941 RMK AO2 SNE08 SLP961 P0000 T10111028 FZRANO
PAIK 242156Z AUTO 09008KT 9SM -SN BKN027 OVC035 M02/M03 A2941 RMK AO2 SLP963 P0000 T10171028 FZRANO
PAIK 242056Z AUTO 11005KT 8SM -SN BKN017 OVC031 M02/M03 A2942 RMK AO2 SLP964 P0000 60000 T10171028 50000 FZRANO
PAIK 241956Z AUTO 11006KT 9SM -SN OVC016 M03/M03 A2942 RMK AO2 SLP965 P0000 T10281033 FZRANO
PAIK 241903Z AUTO 00000KT 5SM -SN BR FEW005 OVC026 M03/M04 A2942 RMK AO2 P0000 FZRANO
PAIK 241856Z AUTO 08003KT 4SM -SN BR BKN005 OVC028 M03/M04 A2942 RMK AO2 SLP964 P0000 T10281039 FZRANO
PAIK 241854Z AUTO 00000KT 3SM -SN BR BKN005 OVC028 M03/M04 A2942 RMK AO2 P0000 FZRANO
PAIK 241843Z AUTO 00000KT 3SM -SN BR SCT005 OVC028 M03/M04 A2942 RMK AO2 P0000 FZRANO
PAIK 241827Z AUTO 00000KT 2 1/2SM -SN BR BKN005 OVC022 M03/M04 A2942 RMK AO2 VIS 2V5 P0000 FZRANO
PAIK 241813Z AUTO 00000KT 4SM -SN BR BKN007 OVC022 M03/M04 A2942 RMK AO2 P0000 FZRANO
PAIK 241810Z AUTO 00000KT 2 1/2SM -SN BR SCT007 OVC022 M03/M04 A2942 RMK AO2 VIS 1 1/2V5 P0000 FZRANO
PAIK 241756Z AUTO 00000KT 2SM -SN BR OVC024 M03/M04 A2942 RMK AO2 VIS 1V4 SLP967 P0000 60000 T10331044 11022 21033 55004 FZRANO
PAIK 241746Z AUTO 00000KT 2SM -SN BR OVC024 M03/M04 A2942 RMK AO2 VIS 1 1/4V2 1/2 P0000 FZRANO
PAIK 241656Z AUTO 07003KT 4SM -SN BR BKN024 M03/M04 A2943 RMK AO2 SLP968 P0000 T10281039 FZRANO
PAIK 241556Z AUTO 11003KT 4SM -SN BR BKN026 OVC035 M03/M04 A2944 RMK AO2 SNB13 SLP971 P0000 T10281039 FZRANO
PAIK 241456Z AUTO 00000KT 10SM OVC022 M03/M06 A2943 RMK AO2 SLP968 60000 T10281056 50000 FZRANO
PAIK 241426Z AUTO 00000KT 10SM BKN022 BKN090 M03/M06 A2943 RMK AO2 FZRANO
PAIK 241415Z AUTO 04004KT 10SM SCT022 BKN090 M03/M06 A2943 RMK AO2 FZRANO
PAIK 241356Z AUTO 06003KT 10SM BKN024 OVC090 M03/M06 A2943 RMK AO2 SLP968 T10281056 FZRANO
PAIK 241256Z AUTO 00000KT 10SM OVC026 M02/M06 A2943 RMK AO2 UPB30E32SNE30B32E48 SLP969 P0000 T10221056 FZRANO
PAIK 241226Z AUTO 06003KT 9SM -SN OVC028 M02/M06 A2943 RMK AO2 P0000 FZRANO
PAIK 241156Z AUTO 00000KT 9SM -SN OVC030 M02/M06 A2943 RMK AO2 SNB47 SLP967 P0000 60000 T10221056 11011 21022 53009 FZRANO